sensor_id;sensor_type;location;lat;lon;timestamp;temperature;humidity
4505;DHT22;2265;48.794;9.520;2023-02-08T00:00:47;-2.70;98.00
4505;DHT22;2265;48.794;9.520;2023-02-08T00:03:15;-2.70;98.00
4505;DHT22;2265;48.794;9.520;2023-02-08T00:05:42;-2.80;98.00
4505;DHT22;2265;48.794;9.520;2023-02-08T00:08:09;-2.80;98.00
4505;DHT22;2265;48.794;9.520;2023-02-08T00:10:37;-2.90;98.00
4505;DHT22;2265;48.794;9.520;2023-02-08T00:13:04;-2.90;98.00
4505;DHT22;2265;48.794;9.520;2023-02-08T00:15:31;-2.90;98.00
4505;DHT22;2265;48.794;9.520;2023-02-08T00:17:58;-2.80;98.00
4505;DHT22;2265;48.794;9.520;2023-02-08T00:20:25;-2.80;98.00
4505;DHT22;2265;48.794;9.520;2023-02-08T00:22:52;-2.70;98.00
4505;DHT22;2265;48.794;9.520;2023-02-08T00:25:19;-2.60;98.00
4505;DHT22;2265;48.794;9.520;2023-02-08T00:27:48;-2.70;98.00
4505;DHT22;2265;48.794;9.520;2023-02-08T00:30:15;-2.70;98.00
4505;DHT22;2265;48.794;9.520;2023-02-08T00:32:42;-2.60;98.00
4505;DHT22;2265;48.794;9.520;2023-02-08T00:35:09;-2.60;98.00
4505;DHT22;2265;48.794;9.520;2023-02-08T00:37:36;-2.50;98.00
4505;DHT22;2265;48.794;9.520;2023-02-08T00:40:04;-2.30;98.00
4505;DHT22;2265;48.794;9.520;2023-02-08T00:42:31;-2.40;98.00
4505;DHT22;2265;48.794;9.520;2023-02-08T00:45:00;-2.50;98.00
4505;DHT22;2265;48.794;9.520;2023-02-08T00:47:27;-2.60;98.00
4505;DHT22;2265;48.794;9.520;2023-02-08T00:49:54;-2.60;98.00
4505;DHT22;2265;48.794;9.520;2023-02-08T00:52:21;-2.60;98.00
4505;DHT22;2265;48.794;9.520;2023-02-08T00:54:48;-2.60;98.00
4505;DHT22;2265;48.794;9.520;2023-02-08T00:57:15;-2.70;98.00
4505;DHT22;2265;48.794;9.520;2023-02-08T00:59:42;-2.70;98.00
4505;DHT22;2265;48.794;9.520;2023-02-08T01:02:10;-2.80;98.00
4505;DHT22;2265;48.794;9.520;2023-02-08T01:04:37;-2.70;98.00
4505;DHT22;2265;48.794;9.520;2023-02-08T01:07:05;-2.80;98.00
4505;DHT22;2265;48.794;9.520;2023-02-08T01:09:32;-2.90;98.00
4505;DHT22;2265;48.794;9.520;2023-02-08T01:11:59;-2.90;98.00
4505;DHT22;2265;48.794;9.520;2023-02-08T01:14:27;-2.80;98.00
4505;DHT22;2265;48.794;9.520;2023-02-08T01:16:54;-2.90;98.00
4505;DHT22;2265;48.794;9.520;2023-02-08T01:19:22;-3.00;98.00
4505;DHT22;2265;48.794;9.520;2023-02-08T01:21:49;-3.00;98.00
4505;DHT22;2265;48.794;9.520;2023-02-08T01:24:17;-3.00;98.00
4505;DHT22;2265;48.794;9.520;2023-02-08T01:26:44;-3.10;98.00
4505;DHT22;2265;48.794;9.520;2023-02-08T01:29:11;-3.20;98.00
4505;DHT22;2265;48.794;9.520;2023-02-08T01:31:39;-3.20;98.00
4505;DHT22;2265;48.794;9.520;2023-02-08T01:34:07;-3.20;98.00
4505;DHT22;2265;48.794;9.520;2023-02-08T01:36:37;-3.20;98.00
4505;DHT22;2265;48.794;9.520;2023-02-08T01:39:05;-3.20;98.00
4505;DHT22;2265;48.794;9.520;2023-02-08T01:41:35;-3.20;98.00
4505;DHT22;2265;48.794;9.520;2023-02-08T01:44:08;-3.30;98.00
4505;DHT22;2265;48.794;9.520;2023-02-08T01:46:54;-3.20;98.00
4505;DHT22;2265;48.794;9.520;2023-02-08T01:49:24;-3.20;98.00
4505;DHT22;2265;48.794;9.520;2023-02-08T01:51:57;-3.20;98.00
4505;DHT22;2265;48.794;9.520;2023-02-08T01:54:27;-3.30;98.00
4505;DHT22;2265;48.794;9.520;2023-02-08T01:56:56;-3.30;98.00
4505;DHT22;2265;48.794;9.520;2023-02-08T01:59:24;-3.40;98.00
4505;DHT22;2265;48.794;9.520;2023-02-08T02:01:54;-3.30;98.00
4505;DHT22;2265;48.794;9.520;2023-02-08T02:04:22;-3.40;98.00
4505;DHT22;2265;48.794;9.520;2023-02-08T02:06:54;-3.40;98.00
4505;DHT22;2265;48.794;9.520;2023-02-08T02:09:27;-3.40;98.00
4505;DHT22;2265;48.794;9.520;2023-02-08T02:11:55;-3.40;98.00
4505;DHT22;2265;48.794;9.520;2023-02-08T02:14:22;-3.40;98.00
4505;DHT22;2265;48.794;9.520;2023-02-08T02:16:49;-3.50;98.00
4505;DHT22;2265;48.794;9.520;2023-02-08T02:19:25;-3.70;98.00
4505;DHT22;2265;48.794;9.520;2023-02-08T02:22:05;-3.60;98.00
4505;DHT22;2265;48.794;9.520;2023-02-08T02:24:49;-3.60;98.00
4505;DHT22;2265;48.794;9.520;2023-02-08T02:27:28;-3.70;98.00
4505;DHT22;2265;48.794;9.520;2023-02-08T02:30:26;-3.50;98.00
4505;DHT22;2265;48.794;9.520;2023-02-08T02:33:18;-3.50;98.00
4505;DHT22;2265;48.794;9.520;2023-02-08T02:35:54;-3.70;98.00
4505;DHT22;2265;48.794;9.520;2023-02-08T02:38:28;-3.70;98.00
4505;DHT22;2265;48.794;9.520;2023-02-08T02:41:06;-3.60;98.00
4505;DHT22;2265;48.794;9.520;2023-02-08T02:43:44;-3.70;98.00
4505;DHT22;2265;48.794;9.520;2023-02-08T02:46:21;-3.60;98.00
4505;DHT22;2265;48.794;9.520;2023-02-08T02:48:55;-3.60;98.00
4505;DHT22;2265;48.794;9.520;2023-02-08T02:51:27;-3.50;98.00
4505;DHT22;2265;48.794;9.520;2023-02-08T02:53:59;-3.60;98.00
4505;DHT22;2265;48.794;9.520;2023-02-08T02:56:30;-3.60;98.00
4505;DHT22;2265;48.794;9.520;2023-02-08T02:59:03;-3.50;98.00
4505;DHT22;2265;48.794;9.520;2023-02-08T03:01:31;-3.40;98.00
4505;DHT22;2265;48.794;9.520;2023-02-08T03:03:59;-3.50;98.00
4505;DHT22;2265;48.794;9.520;2023-02-08T03:06:38;-3.50;98.00
4505;DHT22;2265;48.794;9.520;2023-02-08T03:09:29;-3.50;98.00
4505;DHT22;2265;48.794;9.520;2023-02-08T03:12:08;-3.70;98.00
4505;DHT22;2265;48.794;9.520;2023-02-08T03:14:46;-3.70;98.00
4505;DHT22;2265;48.794;9.520;2023-02-08T03:17:33;-3.50;98.00
4505;DHT22;2265;48.794;9.520;2023-02-08T03:20:09;-3.50;98.00
4505;DHT22;2265;48.794;9.520;2023-02-08T03:22:43;-3.60;98.00
4505;DHT22;2265;48.794;9.520;2023-02-08T03:25:15;-3.50;98.00
4505;DHT22;2265;48.794;9.520;2023-02-08T03:27:50;-3.50;98.00
4505;DHT22;2265;48.794;9.520;2023-02-08T03:30:24;-3.50;98.00
4505;DHT22;2265;48.794;9.520;2023-02-08T03:32:56;-3.60;98.00
4505;DHT22;2265;48.794;9.520;2023-02-08T03:35:28;-3.80;98.00
4505;DHT22;2265;48.794;9.520;2023-02-08T03:37:59;-4.00;98.00
4505;DHT22;2265;48.794;9.520;2023-02-08T03:40:30;-4.00;98.00
4505;DHT22;2265;48.794;9.520;2023-02-08T03:43:01;-4.10;98.00
4505;DHT22;2265;48.794;9.520;2023-02-08T03:45:32;-4.00;98.00
4505;DHT22;2265;48.794;9.520;2023-02-08T03:48:04;-3.90;98.00
4505;DHT22;2265;48.794;9.520;2023-02-08T03:50:37;-3.90;98.00
4505;DHT22;2265;48.794;9.520;2023-02-08T03:53:06;-4.00;98.00
4505;DHT22;2265;48.794;9.520;2023-02-08T03:55:35;-4.00;98.00
4505;DHT22;2265;48.794;9.520;2023-02-08T03:58:07;-4.20;98.00
4505;DHT22;2265;48.794;9.520;2023-02-08T04:00:38;-4.10;98.00
4505;DHT22;2265;48.794;9.520;2023-02-08T04:03:12;-4.30;98.00
4505;DHT22;2265;48.794;9.520;2023-02-08T04:05:43;-4.10;98.00
4505;DHT22;2265;48.794;9.520;2023-02-08T04:08:10;-4.10;98.00
4505;DHT22;2265;48.794;9.520;2023-02-08T04:10:37;-4.10;98.00
4505;DHT22;2265;48.794;9.520;2023-02-08T04:13:04;-4.00;98.00
4505;DHT22;2265;48.794;9.520;2023-02-08T04:15:31;-4.00;98.00
4505;DHT22;2265;48.794;9.520;2023-02-08T04:17:58;-4.00;98.00
4505;DHT22;2265;48.794;9.520;2023-02-08T04:20:25;-4.00;98.00
4505;DHT22;2265;48.794;9.520;2023-02-08T04:22:54;-4.10;98.00
4505;DHT22;2265;48.794;9.520;2023-02-08T04:25:21;-4.30;98.00
4505;DHT22;2265;48.794;9.520;2023-02-08T04:27:47;-4.30;98.00
4505;DHT22;2265;48.794;9.520;2023-02-08T04:30:15;-4.50;98.00
4505;DHT22;2265;48.794;9.520;2023-02-08T04:32:42;-4.50;98.00
4505;DHT22;2265;48.794;9.520;2023-02-08T04:35:09;-4.50;98.00
4505;DHT22;2265;48.794;9.520;2023-02-08T04:37:36;-4.50;98.00
4505;DHT22;2265;48.794;9.520;2023-02-08T04:40:05;-4.60;98.00
4505;DHT22;2265;48.794;9.520;2023-02-08T04:42:32;-4.50;98.00
4505;DHT22;2265;48.794;9.520;2023-02-08T04:44:59;-4.50;98.00
4505;DHT22;2265;48.794;9.520;2023-02-08T04:47:26;-4.40;98.00
4505;DHT22;2265;48.794;9.520;2023-02-08T04:49:53;-4.40;98.00
4505;DHT22;2265;48.794;9.520;2023-02-08T04:52:20;-4.30;98.00
4505;DHT22;2265;48.794;9.520;2023-02-08T04:54:47;-4.20;98.00
4505;DHT22;2265;48.794;9.520;2023-02-08T04:57:15;-4.20;98.00
4505;DHT22;2265;48.794;9.520;2023-02-08T04:59:42;-4.10;98.00
4505;DHT22;2265;48.794;9.520;2023-02-08T05:02:09;-4.10;98.00
4505;DHT22;2265;48.794;9.520;2023-02-08T05:04:36;-4.30;98.00
4505;DHT22;2265;48.794;9.520;2023-02-08T05:07:03;-4.40;98.00
4505;DHT22;2265;48.794;9.520;2023-02-08T05:09:30;-4.30;98.00
4505;DHT22;2265;48.794;9.520;2023-02-08T05:11:57;-4.30;98.00
4505;DHT22;2265;48.794;9.520;2023-02-08T05:14:25;-4.30;98.00
4505;DHT22;2265;48.794;9.520;2023-02-08T05:16:52;-4.20;98.00
4505;DHT22;2265;48.794;9.520;2023-02-08T05:19:19;-4.20;98.00
4505;DHT22;2265;48.794;9.520;2023-02-08T05:21:46;-4.20;98.00
4505;DHT22;2265;48.794;9.520;2023-02-08T05:24:14;-4.30;98.00
4505;DHT22;2265;48.794;9.520;2023-02-08T05:26:41;-4.30;98.00
4505;DHT22;2265;48.794;9.520;2023-02-08T05:29:08;-4.40;98.00
4505;DHT22;2265;48.794;9.520;2023-02-08T05:31:36;-4.30;98.00
4505;DHT22;2265;48.794;9.520;2023-02-08T05:34:03;-4.40;98.00
4505;DHT22;2265;48.794;9.520;2023-02-08T05:36:30;-4.40;98.00
4505;DHT22;2265;48.794;9.520;2023-02-08T05:38:57;-4.50;98.00
4505;DHT22;2265;48.794;9.520;2023-02-08T05:41:24;-4.50;98.00
4505;DHT22;2265;48.794;9.520;2023-02-08T05:43:51;-4.60;98.00
4505;DHT22;2265;48.794;9.520;2023-02-08T05:46:18;-4.60;98.00
4505;DHT22;2265;48.794;9.520;2023-02-08T05:48:47;-4.60;98.00
4505;DHT22;2265;48.794;9.520;2023-02-08T05:51:14;-4.60;98.00
4505;DHT22;2265;48.794;9.520;2023-02-08T05:53:41;-4.50;98.00
4505;DHT22;2265;48.794;9.520;2023-02-08T05:56:10;-4.40;98.00
4505;DHT22;2265;48.794;9.520;2023-02-08T05:58:37;-4.40;98.00
4505;DHT22;2265;48.794;9.520;2023-02-08T06:01:07;-4.60;98.00
4505;DHT22;2265;48.794;9.520;2023-02-08T06:03:35;-4.60;98.00
4505;DHT22;2265;48.794;9.520;2023-02-08T06:06:04;-4.60;98.00
4505;DHT22;2265;48.794;9.520;2023-02-08T06:08:31;-4.60;98.00
4505;DHT22;2265;48.794;9.520;2023-02-08T06:10:58;-4.60;98.00
4505;DHT22;2265;48.794;9.520;2023-02-08T06:13:25;-4.60;98.00
4505;DHT22;2265;48.794;9.520;2023-02-08T06:15:53;-4.70;98.00
4505;DHT22;2265;48.794;9.520;2023-02-08T06:18:20;-4.60;98.00
4505;DHT22;2265;48.794;9.520;2023-02-08T06:20:48;-4.70;98.00
4505;DHT22;2265;48.794;9.520;2023-02-08T06:23:19;-4.60;98.00
4505;DHT22;2265;48.794;9.520;2023-02-08T06:25:46;-4.70;98.00
4505;DHT22;2265;48.794;9.520;2023-02-08T06:28:13;-4.60;98.00
4505;DHT22;2265;48.794;9.520;2023-02-08T06:30:40;-4.50;98.00
4505;DHT22;2265;48.794;9.520;2023-02-08T06:33:07;-4.60;98.00
4505;DHT22;2265;48.794;9.520;2023-02-08T06:35:34;-4.60;98.00
4505;DHT22;2265;48.794;9.520;2023-02-08T06:38:01;-4.60;98.00
4505;DHT22;2265;48.794;9.520;2023-02-08T06:40:29;-4.60;98.00
4505;DHT22;2265;48.794;9.520;2023-02-08T06:42:56;-4.50;98.00
4505;DHT22;2265;48.794;9.520;2023-02-08T06:45:23;-4.50;98.00
4505;DHT22;2265;48.794;9.520;2023-02-08T06:47:50;-4.40;98.00
4505;DHT22;2265;48.794;9.520;2023-02-08T06:50:17;-4.40;98.00
4505;DHT22;2265;48.794;9.520;2023-02-08T06:52:44;-4.30;98.00
4505;DHT22;2265;48.794;9.520;2023-02-08T06:55:12;-4.40;98.00
4505;DHT22;2265;48.794;9.520;2023-02-08T06:57:40;-4.50;98.00
4505;DHT22;2265;48.794;9.520;2023-02-08T07:00:09;-4.70;98.00
4505;DHT22;2265;48.794;9.520;2023-02-08T07:02:36;-4.80;98.00
4505;DHT22;2265;48.794;9.520;2023-02-08T07:05:03;-4.70;98.00
4505;DHT22;2265;48.794;9.520;2023-02-08T07:07:30;-4.70;98.00
4505;DHT22;2265;48.794;9.520;2023-02-08T07:09:57;-4.60;98.00
4505;DHT22;2265;48.794;9.520;2023-02-08T07:12:24;-4.60;98.00
4505;DHT22;2265;48.794;9.520;2023-02-08T07:14:53;-4.60;98.00
4505;DHT22;2265;48.794;9.520;2023-02-08T07:17:20;-4.60;98.00
4505;DHT22;2265;48.794;9.520;2023-02-08T07:19:47;-4.60;98.00
4505;DHT22;2265;48.794;9.520;2023-02-08T07:22:14;-4.80;98.00
4505;DHT22;2265;48.794;9.520;2023-02-08T07:24:41;-4.90;98.00
4505;DHT22;2265;48.794;9.520;2023-02-08T07:27:10;-4.80;98.00
4505;DHT22;2265;48.794;9.520;2023-02-08T07:29:38;-4.70;98.00
4505;DHT22;2265;48.794;9.520;2023-02-08T07:32:07;-4.70;98.00
4505;DHT22;2265;48.794;9.520;2023-02-08T07:34:35;-4.70;98.00
4505;DHT22;2265;48.794;9.520;2023-02-08T07:37:05;-4.60;98.00
4505;DHT22;2265;48.794;9.520;2023-02-08T07:39:32;-4.60;98.00
4505;DHT22;2265;48.794;9.520;2023-02-08T07:41:59;-4.40;98.00
4505;DHT22;2265;48.794;9.520;2023-02-08T07:44:26;-4.40;98.00
4505;DHT22;2265;48.794;9.520;2023-02-08T07:46:53;-4.30;98.00
4505;DHT22;2265;48.794;9.520;2023-02-08T07:49:22;-4.30;98.00
4505;DHT22;2265;48.794;9.520;2023-02-08T07:51:49;-4.30;98.00
4505;DHT22;2265;48.794;9.520;2023-02-08T07:54:16;-4.20;98.00
4505;DHT22;2265;48.794;9.520;2023-02-08T07:56:43;-4.20;98.00
4505;DHT22;2265;48.794;9.520;2023-02-08T07:59:10;-4.10;98.00
4505;DHT22;2265;48.794;9.520;2023-02-08T08:01:39;-4.10;98.00
4505;DHT22;2265;48.794;9.520;2023-02-08T08:04:06;-4.10;98.00
4505;DHT22;2265;48.794;9.520;2023-02-08T08:06:34;-4.10;98.00
4505;DHT22;2265;48.794;9.520;2023-02-08T08:09:02;-4.00;98.00
4505;DHT22;2265;48.794;9.520;2023-02-08T08:11:30;-3.90;98.00
4505;DHT22;2265;48.794;9.520;2023-02-08T08:13:57;-3.70;98.00
4505;DHT22;2265;48.794;9.520;2023-02-08T08:16:24;-3.40;98.00
4505;DHT22;2265;48.794;9.520;2023-02-08T08:18:51;-3.30;98.00
4505;DHT22;2265;48.794;9.520;2023-02-08T08:21:18;-3.20;98.00
4505;DHT22;2265;48.794;9.520;2023-02-08T08:23:46;-3.10;98.00
4505;DHT22;2265;48.794;9.520;2023-02-08T08:26:15;-2.90;98.00
4505;DHT22;2265;48.794;9.520;2023-02-08T08:28:43;-2.70;98.00
4505;DHT22;2265;48.794;9.520;2023-02-08T08:31:13;-2.50;98.00
4505;DHT22;2265;48.794;9.520;2023-02-08T08:33:40;-2.30;98.00
4505;DHT22;2265;48.794;9.520;2023-02-08T08:36:08;-2.20;98.00
4505;DHT22;2265;48.794;9.520;2023-02-08T08:38:35;-2.00;98.00
4505;DHT22;2265;48.794;9.520;2023-02-08T08:41:08;-2.00;98.00
4505;DHT22;2265;48.794;9.520;2023-02-08T08:43:35;-1.90;98.00
4505;DHT22;2265;48.794;9.520;2023-02-08T08:46:03;-1.70;98.00
4505;DHT22;2265;48.794;9.520;2023-02-08T08:48:32;-1.80;98.00
4505;DHT22;2265;48.794;9.520;2023-02-08T08:50:59;-1.80;98.00
4505;DHT22;2265;48.794;9.520;2023-02-08T08:53:26;-1.70;98.00
4505;DHT22;2265;48.794;9.520;2023-02-08T08:55:53;-1.70;98.00
4505;DHT22;2265;48.794;9.520;2023-02-08T08:58:21;-1.70;98.00
4505;DHT22;2265;48.794;9.520;2023-02-08T09:00:48;-1.50;98.00
4505;DHT22;2265;48.794;9.520;2023-02-08T09:03:15;-1.40;98.00
4505;DHT22;2265;48.794;9.520;2023-02-08T09:05:42;-1.20;98.00
4505;DHT22;2265;48.794;9.520;2023-02-08T09:08:09;-1.20;98.00
4505;DHT22;2265;48.794;9.520;2023-02-08T09:10:38;-0.90;98.00
4505;DHT22;2265;48.794;9.520;2023-02-08T09:13:05;-0.30;98.00
4505;DHT22;2265;48.794;9.520;2023-02-08T09:15:37;-0.20;98.00
4505;DHT22;2265;48.794;9.520;2023-02-08T09:18:04;-0.20;98.00
4505;DHT22;2265;48.794;9.520;2023-02-08T09:20:31;-0.10;98.00
4505;DHT22;2265;48.794;9.520;2023-02-08T09:22:58;0.00;98.00
4505;DHT22;2265;48.794;9.520;2023-02-08T09:25:26;0.10;98.00
4505;DHT22;2265;48.794;9.520;2023-02-08T09:27:53;0.10;98.00
4505;DHT22;2265;48.794;9.520;2023-02-08T09:30:20;0.10;98.00
4505;DHT22;2265;48.794;9.520;2023-02-08T09:32:48;0.20;98.00
4505;DHT22;2265;48.794;9.520;2023-02-08T09:35:15;0.30;98.00
4505;DHT22;2265;48.794;9.520;2023-02-08T09:37:42;0.40;98.00
4505;DHT22;2265;48.794;9.520;2023-02-08T09:40:20;0.30;98.00
4505;DHT22;2265;48.794;9.520;2023-02-08T09:42:56;0.30;98.00
4505;DHT22;2265;48.794;9.520;2023-02-08T09:45:36;0.40;98.00
4505;DHT22;2265;48.794;9.520;2023-02-08T09:48:15;0.40;98.00
4505;DHT22;2265;48.794;9.520;2023-02-08T09:50:45;0.60;98.00
4505;DHT22;2265;48.794;9.520;2023-02-08T09:53:17;0.70;98.00
4505;DHT22;2265;48.794;9.520;2023-02-08T09:55:49;0.80;98.00
4505;DHT22;2265;48.794;9.520;2023-02-08T09:58:22;0.90;98.00
4505;DHT22;2265;48.794;9.520;2023-02-08T10:00:51;1.00;98.00
4505;DHT22;2265;48.794;9.520;2023-02-08T10:03:35;1.10;98.00
4505;DHT22;2265;48.794;9.520;2023-02-08T10:06:05;1.10;98.00
4505;DHT22;2265;48.794;9.520;2023-02-08T10:08:35;1.20;98.00
4505;DHT22;2265;48.794;9.520;2023-02-08T10:11:11;1.30;98.00
4505;DHT22;2265;48.794;9.520;2023-02-08T10:16:59;1.60;98.00
4505;DHT22;2265;48.794;9.520;2023-02-08T10:19:41;1.70;98.00
4505;DHT22;2265;48.794;9.520;2023-02-08T10:22:21;1.90;98.00
4505;DHT22;2265;48.794;9.520;2023-02-08T10:25:32;2.00;98.00
4505;DHT22;2265;48.794;9.520;2023-02-08T10:28:41;2.10;98.00
4505;DHT22;2265;48.794;9.520;2023-02-08T10:31:49;2.40;98.00
4505;DHT22;2265;48.794;9.520;2023-02-08T10:34:30;2.50;97.60
4505;DHT22;2265;48.794;9.520;2023-02-08T10:37:00;2.60;97.30
4505;DHT22;2265;48.794;9.520;2023-02-08T10:39:34;2.80;96.90
4505;DHT22;2265;48.794;9.520;2023-02-08T10:42:03;3.00;96.30
4505;DHT22;2265;48.794;9.520;2023-02-08T10:44:50;3.10;95.40
4505;DHT22;2265;48.794;9.520;2023-02-08T10:47:31;3.20;95.20
4505;DHT22;2265;48.794;9.520;2023-02-08T10:50:05;3.40;94.50
4505;DHT22;2265;48.794;9.520;2023-02-08T10:52:36;3.60;93.20
4505;DHT22;2265;48.794;9.520;2023-02-08T10:55:12;3.60;93.90
4505;DHT22;2265;48.794;9.520;2023-02-08T10:57:39;3.80;93.60
4505;DHT22;2265;48.794;9.520;2023-02-08T11:00:10;3.90;93.40
4505;DHT22;2265;48.794;9.520;2023-02-08T11:02:40;4.10;92.80
4505;DHT22;2265;48.794;9.520;2023-02-08T11:05:10;4.20;92.70
4505;DHT22;2265;48.794;9.520;2023-02-08T11:07:39;4.20;92.90
4505;DHT22;2265;48.794;9.520;2023-02-08T11:10:28;4.30;93.10
4505;DHT22;2265;48.794;9.520;2023-02-08T11:12:58;4.40;92.40
4505;DHT22;2265;48.794;9.520;2023-02-08T11:15:28;4.60;92.60
4505;DHT22;2265;48.794;9.520;2023-02-08T11:17:59;4.80;92.20
4505;DHT22;2265;48.794;9.520;2023-02-08T11:20:32;5.00;91.00
4505;DHT22;2265;48.794;9.520;2023-02-08T11:23:04;5.10;90.80
4505;DHT22;2265;48.794;9.520;2023-02-08T11:25:34;5.30;91.10
4505;DHT22;2265;48.794;9.520;2023-02-08T11:28:03;5.40;89.30
4505;DHT22;2265;48.794;9.520;2023-02-08T11:30:30;5.50;89.60
4505;DHT22;2265;48.794;9.520;2023-02-08T11:33:15;5.70;88.70
4505;DHT22;2265;48.794;9.520;2023-02-08T11:38:41;6.00;87.70
4505;DHT22;2265;48.794;9.520;2023-02-08T11:41:15;6.30;88.00
4505;DHT22;2265;48.794;9.520;2023-02-08T11:43:56;6.60;87.80
4505;DHT22;2265;48.794;9.520;2023-02-08T11:46:27;6.80;86.20
4505;DHT22;2265;48.794;9.520;2023-02-08T11:48:55;7.10;85.90
4505;DHT22;2265;48.794;9.520;2023-02-08T11:51:25;7.40;84.80
4505;DHT22;2265;48.794;9.520;2023-02-08T11:54:30;7.60;85.20
4505;DHT22;2265;48.794;9.520;2023-02-08T12:00:36;8.10;83.90
4505;DHT22;2265;48.794;9.520;2023-02-08T12:03:10;8.20;82.70
4505;DHT22;2265;48.794;9.520;2023-02-08T12:06:03;8.30;82.70
4505;DHT22;2265;48.794;9.520;2023-02-08T12:08:39;8.50;82.60
4505;DHT22;2265;48.794;9.520;2023-02-08T12:11:18;8.70;81.60
4505;DHT22;2265;48.794;9.520;2023-02-08T12:14:01;8.80;80.90
4505;DHT22;2265;48.794;9.520;2023-02-08T12:16:49;8.90;81.30
4505;DHT22;2265;48.794;9.520;2023-02-08T12:19:51;9.00;81.10
4505;DHT22;2265;48.794;9.520;2023-02-08T12:22:26;9.20;81.30
4505;DHT22;2265;48.794;9.520;2023-02-08T12:25:01;9.40;79.80
4505;DHT22;2265;48.794;9.520;2023-02-08T12:27:38;9.50;80.70
4505;DHT22;2265;48.794;9.520;2023-02-08T12:30:16;9.50;80.20
4505;DHT22;2265;48.794;9.520;2023-02-08T12:33:05;9.40;79.90
4505;DHT22;2265;48.794;9.520;2023-02-08T12:36:04;9.60;79.00
4505;DHT22;2265;48.794;9.520;2023-02-08T12:38:46;9.90;79.10
4505;DHT22;2265;48.794;9.520;2023-02-08T12:41:42;10.10;79.00
4505;DHT22;2265;48.794;9.520;2023-02-08T12:48:00;10.20;78.10
4505;DHT22;2265;48.794;9.520;2023-02-08T12:57:30;10.60;78.70
4505;DHT22;2265;48.794;9.520;2023-02-08T13:00:03;10.60;78.00
4505;DHT22;2265;48.794;9.520;2023-02-08T13:02:34;10.60;79.10
4505;DHT22;2265;48.794;9.520;2023-02-08T13:05:14;10.70;77.90
4505;DHT22;2265;48.794;9.520;2023-02-08T13:07:43;10.70;77.60
4505;DHT22;2265;48.794;9.520;2023-02-08T13:10:22;10.80;77.50
4505;DHT22;2265;48.794;9.520;2023-02-08T13:12:54;11.00;77.70
4505;DHT22;2265;48.794;9.520;2023-02-08T13:15:28;11.00;77.60
4505;DHT22;2265;48.794;9.520;2023-02-08T13:17:58;11.10;77.30
4505;DHT22;2265;48.794;9.520;2023-02-08T13:20:36;11.20;77.30
4505;DHT22;2265;48.794;9.520;2023-02-08T13:23:12;11.10;77.40
4505;DHT22;2265;48.794;9.520;2023-02-08T13:25:42;11.10;77.20
4505;DHT22;2265;48.794;9.520;2023-02-08T13:28:17;11.00;77.30
4505;DHT22;2265;48.794;9.520;2023-02-08T13:30:55;11.10;77.50
4505;DHT22;2265;48.794;9.520;2023-02-08T13:33:30;11.10;76.30
4505;DHT22;2265;48.794;9.520;2023-02-08T13:35:59;11.00;77.20
4505;DHT22;2265;48.794;9.520;2023-02-08T13:38:28;10.90;76.60
4505;DHT22;2265;48.794;9.520;2023-02-08T13:41:07;10.70;76.50
4505;DHT22;2265;48.794;9.520;2023-02-08T13:43:47;10.70;77.10
4505;DHT22;2265;48.794;9.520;2023-02-08T13:46:18;10.20;77.10
4505;DHT22;2265;48.794;9.520;2023-02-08T13:48:48;9.70;78.30
4505;DHT22;2265;48.794;9.520;2023-02-08T13:51:52;9.00;79.50
4505;DHT22;2265;48.794;9.520;2023-02-08T13:54:19;8.60;81.10
4505;DHT22;2265;48.794;9.520;2023-02-08T13:56:50;8.10;82.40
4505;DHT22;2265;48.794;9.520;2023-02-08T13:59:29;7.80;83.20
4505;DHT22;2265;48.794;9.520;2023-02-08T14:02:28;7.60;84.60
4505;DHT22;2265;48.794;9.520;2023-02-08T14:08:21;7.00;86.20
4505;DHT22;2265;48.794;9.520;2023-02-08T14:11:01;6.90;86.00
4505;DHT22;2265;48.794;9.520;2023-02-08T14:13:33;6.70;86.80
4505;DHT22;2265;48.794;9.520;2023-02-08T14:16:32;6.60;87.30
4505;DHT22;2265;48.794;9.520;2023-02-08T14:19:04;6.60;87.30
4505;DHT22;2265;48.794;9.520;2023-02-08T14:21:35;6.70;87.20
4505;DHT22;2265;48.794;9.520;2023-02-08T14:24:05;6.60;87.20
4505;DHT22;2265;48.794;9.520;2023-02-08T14:26:33;7.00;86.30
4505;DHT22;2265;48.794;9.520;2023-02-08T14:29:04;7.30;85.50
4505;DHT22;2265;48.794;9.520;2023-02-08T14:31:39;7.30;84.70
4505;DHT22;2265;48.794;9.520;2023-02-08T14:34:21;7.20;84.80
4505;DHT22;2265;48.794;9.520;2023-02-08T14:36:58;7.50;84.30
4505;DHT22;2265;48.794;9.520;2023-02-08T14:39:26;7.70;83.50
4505;DHT22;2265;48.794;9.520;2023-02-08T14:41:55;8.10;82.10
4505;DHT22;2265;48.794;9.520;2023-02-08T14:44:44;8.70;81.20
4505;DHT22;2265;48.794;9.520;2023-02-08T14:47:50;9.10;79.70
4505;DHT22;2265;48.794;9.520;2023-02-08T14:50:23;9.70;78.90
4505;DHT22;2265;48.794;9.520;2023-02-08T14:52:56;10.00;77.30
4505;DHT22;2265;48.794;9.520;2023-02-08T14:55:26;10.00;76.20
4505;DHT22;2265;48.794;9.520;2023-02-08T14:57:57;10.30;75.70
4505;DHT22;2265;48.794;9.520;2023-02-08T15:00:28;10.40;75.00
4505;DHT22;2265;48.794;9.520;2023-02-08T15:02:58;10.50;74.90
4505;DHT22;2265;48.794;9.520;2023-02-08T15:05:29;10.80;74.60
4505;DHT22;2265;48.794;9.520;2023-02-08T15:08:00;11.10;73.10
4505;DHT22;2265;48.794;9.520;2023-02-08T15:10:28;11.40;72.60
4505;DHT22;2265;48.794;9.520;2023-02-08T15:12:57;11.60;72.10
4505;DHT22;2265;48.794;9.520;2023-02-08T15:15:31;12.00;71.40
4505;DHT22;2265;48.794;9.520;2023-02-08T15:18:00;12.30;69.20
4505;DHT22;2265;48.794;9.520;2023-02-08T15:20:31;12.40;69.30
4505;DHT22;2265;48.794;9.520;2023-02-08T15:23:01;12.70;69.40
4505;DHT22;2265;48.794;9.520;2023-02-08T15:25:30;12.80;69.50
4505;DHT22;2265;48.794;9.520;2023-02-08T15:27:59;13.20;68.50
4505;DHT22;2265;48.794;9.520;2023-02-08T15:30:30;13.30;67.80
4505;DHT22;2265;48.794;9.520;2023-02-08T15:33:00;13.10;68.30
4505;DHT22;2265;48.794;9.520;2023-02-08T15:35:32;13.50;68.50
4505;DHT22;2265;48.794;9.520;2023-02-08T15:38:00;13.90;68.20
4505;DHT22;2265;48.794;9.520;2023-02-08T15:40:31;14.00;68.10
4505;DHT22;2265;48.794;9.520;2023-02-08T15:43:03;13.80;67.90
4505;DHT22;2265;48.794;9.520;2023-02-08T15:45:30;13.40;67.40
4505;DHT22;2265;48.794;9.520;2023-02-08T15:47:58;13.00;68.50
4505;DHT22;2265;48.794;9.520;2023-02-08T15:50:26;12.90;68.60
4505;DHT22;2265;48.794;9.520;2023-02-08T15:52:58;12.70;68.20
4505;DHT22;2265;48.794;9.520;2023-02-08T15:55:28;11.50;69.90
4505;DHT22;2265;48.794;9.520;2023-02-08T15:57:59;10.60;71.60
4505;DHT22;2265;48.794;9.520;2023-02-08T16:00:30;9.60;73.50
4505;DHT22;2265;48.794;9.520;2023-02-08T16:03:03;8.70;75.40
4505;DHT22;2265;48.794;9.520;2023-02-08T16:05:33;8.20;77.80
4505;DHT22;2265;48.794;9.520;2023-02-08T16:08:04;7.60;78.80
4505;DHT22;2265;48.794;9.520;2023-02-08T16:10:33;7.20;80.20
4505;DHT22;2265;48.794;9.520;2023-02-08T16:13:03;6.80;81.70
4505;DHT22;2265;48.794;9.520;2023-02-08T16:15:39;6.50;82.70
4505;DHT22;2265;48.794;9.520;2023-02-08T16:18:38;5.80;84.10
4505;DHT22;2265;48.794;9.520;2023-02-08T16:21:18;5.40;85.20
4505;DHT22;2265;48.794;9.520;2023-02-08T16:23:52;4.90;86.60
4505;DHT22;2265;48.794;9.520;2023-02-08T16:26:22;4.70;87.80
4505;DHT22;2265;48.794;9.520;2023-02-08T16:28:55;4.40;88.50
4505;DHT22;2265;48.794;9.520;2023-02-08T16:31:24;4.20;89.30
4505;DHT22;2265;48.794;9.520;2023-02-08T16:34:02;3.90;91.10
4505;DHT22;2265;48.794;9.520;2023-02-08T16:36:39;3.80;90.70
4505;DHT22;2265;48.794;9.520;2023-02-08T16:42:28;3.60;92.00
4505;DHT22;2265;48.794;9.520;2023-02-08T16:45:02;3.50;92.10
4505;DHT22;2265;48.794;9.520;2023-02-08T16:47:38;3.30;92.50
4505;DHT22;2265;48.794;9.520;2023-02-08T16:50:08;3.20;93.60
4505;DHT22;2265;48.794;9.520;2023-02-08T16:52:35;3.30;93.00
4505;DHT22;2265;48.794;9.520;2023-02-08T16:55:03;3.30;93.60
4505;DHT22;2265;48.794;9.520;2023-02-08T16:57:39;3.30;93.30
4505;DHT22;2265;48.794;9.520;2023-02-08T17:00:14;3.20;93.80
4505;DHT22;2265;48.794;9.520;2023-02-08T17:02:41;3.10;94.10